Fargo, ND

11:32 AM CDT on May 29, 2015 (GMT -0500)
North Fargo | | Change Station
CLOSE
Current Station
Personal Weather Station
Location: Fargo, ND
Elevation: 899 ft
Nearby Weather Stations

Elev 899 ft 46.91 °N, 96.79 °W | Updated 4 seconds ago

Overcast
Overcast
0.0 °F
Feels Like 0.0 °F
N
0.0
Wind Variable Wind from North
Gusts 0.0 mph

Today
High -- | Low -- °F
--% Chance of Precip.
Yesterday
High -- | Low -- °F
Precip. -- in
5:38 AM 9:11 PM
Waxing Gibbous, 84% visible
Pressure 30.11 in
Visibility 10.0 miles
Clouds Overcast 1400 ft
Dew Point Not available.
Humidity Not available.
Rainfall 0.00 in
Snow Depth Not available.
UV 3 out of 12
Pollen 9.40 out of 12
Air Quality Not available.
Flu Activity Sporadic
SPECI KFAR 291617Z 36022G32KT 10SM OVC014 08/05 A3011 RMK AO2 PK WND 36032/1614 T00830050

More Conditions Fewer Conditions

Pressure 30.11 in
Visibility 10.0 miles
Clouds Overcast 1400 ft
Dew Point Not available.
Humidity Not available.
Rainfall 0.00 in
Snow Depth Not available.
UV 3 out of 12
Pollen 9.40 out of 12
Air Quality Not available.
Flu Activity Sporadic
SPECI KFAR 291617Z 36022G32KT 10SM OVC014 08/05 A3011 RMK AO2 PK WND 36032/1614 T00830050

More Conditions Fewer Conditions

10-Day Weather Forecast

Almanac

Astronomy

May. 29, 2015 Rise Set
Actual Time
Civil Twilight
Nautical Twilight
Astronomical Twilight
Moon
Length of Visible Light
Length of Day
Tomorrow will be .
, % of the Moon is Illuminated

Today's Extremes

State Highs State Lows

Community

WunderPhotos

Upload Photos

1,825,301 photos uploaded!

WunderBlogs® & News

Nearby

Air Quality

  Air Quality AQ Index Pollutant
Not available.

Snow Depth

Station Depth Elevation

Earthquake Activity

City Distance Mag. Time & Date
Minimum magnitude displayed is 2.5.

Coastal Water Temperatures

Place Temperature

Stations

Nearby Weather Stations

Station Location Temp. Windchill Dew Point Humidity Wind Precip. Elev Updated Type
                   
Flood Warning
Statement as of 10:45 AM CDT on May 29, 2015

The Flood Warning continues for...
* ... Fargo... on the Red River.
* From Saturday afternoon to Friday June 05... or until the warning is
cancelled.
* At 10:15 am Friday the stage was 16.7 feet.
* Minor flood stage is 18.0 feet.
* The river is forecast to crest at 19.8 on Monday mid-morning during
this 7-day period.
* Impact statement(s) - at 19.0 feet, Fargo... low-level dam south of
main Avenue is underwater.


Daily 7am CDT/6am CST forecast stage in feet:

date Sat sun Mon Tue Wed Thu Fri
(month/day) 05/30 05/31 06/01 06/02 06/03 06/04 06/05

Red River
Fargo 17.5 18.9 19.8 19.5 18.5 17.5 16.8


Lat... Lon 4715 9673 4724 9683 4724 9694 4676 9689 4677 9671